Time,TemperatureF,DewpointF,PressureIn,WindDirection,WindDirectionDegrees,WindSpeedMPH,WindSpeedGustMPH,Humidity,HourlyPrecipIn,Conditions,Clouds,dailyrainin,SoftwareType,DateUTC
2013-03-08 00:02:00,51.7,44.4,29.90,NNW,345,2.0,5.0,76,0.00,,---,0.00,VWS V14.01,2013-03-08 08:02:00,
2013-03-08 00:07:00,51.7,44.4,29.90,ESE,104,0.0,5.0,76,0.00,,---,0.00,VWS V14.01,2013-03-08 08:07:00,
2013-03-08 00:12:00,51.6,44.6,29.90,East,90,4.0,5.0,77,0.00,,---,0.00,VWS V14.01,2013-03-08 08:12:00,
2013-03-08 00:17:00,51.5,44.5,29.89,NE,37,0.0,5.0,77,0.00,,---,0.00,VWS V14.01,2013-03-08 08:17:00,
2013-03-08 00:22:00,51.3,44.7,29.89,NNE,15,5.0,5.0,78,0.00,,---,0.00,VWS V14.01,2013-03-08 08:22:00,
2013-03-08 00:27:00,51.2,44.9,29.89,NNE,30,0.0,5.0,79,0.00,,---,0.00,VWS V14.01,2013-03-08 08:27:00,
2013-03-08 00:32:00,51.1,44.8,29.89,NNE,33,0.0,2.0,79,0.00,,---,0.00,VWS V14.01,2013-03-08 08:32:00,
2013-03-08 00:37:00,51.0,45.1,29.89,NE,54,2.0,2.0,80,0.00,,---,0.00,VWS V14.01,2013-03-08 08:37:00,
2013-03-08 00:42:00,50.9,45.0,29.89,NE,55,0.0,2.0,80,0.00,,---,0.00,VWS V14.01,2013-03-08 08:42:00,
2013-03-08 00:47:00,50.9,45.3,29.88,ESE,110,1.0,4.0,81,0.00,,---,0.00,VWS V14.01,2013-03-08 08:47:00,
2013-03-08 00:52:00,51.0,45.4,29.88,ENE,67,1.0,4.0,81,0.01,,---,0.01,VWS V14.01,2013-03-08 08:52:00,
2013-03-08 00:57:00,50.8,45.5,29.88,ENE,63,2.0,4.0,82,0.01,,---,0.01,VWS V14.01,2013-03-08 08:57:00,
2013-03-08 01:02:00,50.8,45.8,29.88,East,90,0.0,2.0,83,0.02,,---,0.02,VWS V14.01,2013-03-08 09:02:00,
2013-03-08 01:07:00,50.6,45.6,29.88,ENE,59,0.0,2.0,83,0.02,,---,0.02,VWS V14.01,2013-03-08 09:07:00,
2013-03-08 01:12:00,50.4,45.8,29.88,NE,44,4.0,5.0,84,0.02,,---,0.02,VWS V14.01,2013-03-08 09:12:00,
2013-03-08 01:17:00,50.3,46.0,29.88,ESE,103,0.0,11.0,85,0.02,,---,0.02,VWS V14.01,2013-03-08 09:17:00,
2013-03-08 01:22:00,50.1,45.8,29.88,ESE,109,5.0,11.0,85,0.03,,---,0.03,VWS V14.01,2013-03-08 09:22:00,
2013-03-08 01:27:00,50.0,45.7,29.87,NE,54,1.0,11.0,85,0.04,,---,0.04,VWS V14.01,2013-03-08 09:27:00,
2013-03-08 01:31:00,49.7,45.7,29.87,ESE,121,0.0,5.0,86,0.05,,---,0.05,VWS V14.01,2013-03-08 09:31:00,
2013-03-08 01:36:00,49.5,45.8,29.86,ESE,103,0.0,5.0,87,0.05,,---,0.05,VWS V14.01,2013-03-08 09:36:00,
2013-03-08 01:41:00,49.3,45.9,29.86,ENE,78,0.0,5.0,88,0.05,,---,0.05,VWS V14.01,2013-03-08 09:41:00,
2013-03-08 01:46:00,49.1,45.7,29.85,ENE,63,0.0,5.0,88,0.05,,---,0.05,VWS V14.01,2013-03-08 09:46:00,
2013-03-08 01:51:00,48.9,45.8,29.85,NE,55,0.0,5.0,89,0.05,,---,0.05,VWS V14.01,2013-03-08 09:51:00,
2013-03-08 01:56:00,48.8,45.7,29.85,NE,42,0.0,5.0,89,0.06,,---,0.06,VWS V14.01,2013-03-08 09:56:00,
2013-03-08 02:01:00,48.7,45.6,29.85,NE,44,0.0,3.0,89,0.04,,---,0.06,VWS V14.01,2013-03-08 10:01:00,
2013-03-08 02:06:00,48.7,45.6,29.85,ENE,57,0.0,3.0,89,0.05,,---,0.07,VWS V14.01,2013-03-08 10:06:00,
2013-03-08 02:11:00,48.5,45.4,29.85,NE,45,0.0,4.0,89,0.06,,---,0.08,VWS V14.01,2013-03-08 10:11:00,
2013-03-08 02:16:00,48.5,45.4,29.84,East,80,1.0,6.0,89,0.07,,---,0.09,VWS V14.01,2013-03-08 10:16:00,
2013-03-08 02:21:00,48.4,45.6,29.84,NE,50,0.0,6.0,90,0.08,,---,0.10,VWS V14.01,2013-03-08 10:21:00,
2013-03-08 02:26:00,48.2,45.4,29.83,NE,38,0.0,6.0,90,0.09,,---,0.11,VWS V14.01,2013-03-08 10:26:00,
2013-03-08 02:31:00,48.1,45.3,29.84,NNE,19,0.0,2.0,90,0.08,,---,0.12,VWS V14.01,2013-03-08 10:31:00,
2013-03-08 02:36:00,48.1,45.6,29.84,SSW,207,0.0,2.0,91,0.08,,---,0.12,VWS V14.01,2013-03-08 10:36:00,
2013-03-08 02:41:00,48.1,45.9,29.85,WNW,300,0.0,2.0,92,0.12,,---,0.16,VWS V14.01,2013-03-08 10:41:00,
2013-03-08 02:46:00,47.9,45.7,29.85,NNW,338,2.0,6.0,92,0.21,,---,0.25,VWS V14.01,2013-03-08 10:46:00,
2013-03-08 02:51:00,47.3,45.1,29.85,WNW,296,0.0,6.0,92,0.29,,---,0.33,VWS V14.01,2013-03-08 10:51:00,
2013-03-08 02:56:00,46.8,44.6,29.85,WNW,299,0.0,6.0,92,0.31,,---,0.35,VWS V14.01,2013-03-08 10:56:00,
2013-03-08 03:01:00,46.3,44.1,29.85,NNW,335,0.0,0.0,92,0.30,,---,0.36,VWS V14.01,2013-03-08 11:01:00,
2013-03-08 03:06:00,46.0,43.8,29.85,WNW,287,0.0,1.0,92,0.32,,---,0.38,VWS V14.01,2013-03-08 11:06:00,
2013-03-08 03:11:00,45.8,43.9,29.85,WNW,291,0.0,1.0,93,0.33,,---,0.39,VWS V14.01,2013-03-08 11:11:00,
2013-03-08 03:16:00,45.7,43.8,29.85,WNW,291,0.0,1.0,93,0.33,,---,0.39,VWS V14.01,2013-03-08 11:16:00,
2013-03-08 03:21:00,45.6,43.7,29.84,WNW,291,0.0,1.0,93,0.34,,---,0.40,VWS V14.01,2013-03-08 11:21:00,
2013-03-08 03:26:00,45.7,44.1,29.84,WSW,255,0.0,1.0,94,0.35,,---,0.41,VWS V14.01,2013-03-08 11:26:00,
2013-03-08 03:31:00,45.8,44.2,29.85,West,268,0.0,0.0,94,0.30,,---,0.41,VWS V14.01,2013-03-08 11:31:00,
2013-03-08 03:36:00,45.9,44.3,29.85,North,5,0.0,0.0,94,0.30,,---,0.41,VWS V14.01,2013-03-08 11:36:00,
2013-03-08 03:41:00,46.0,44.7,29.85,West,268,0.0,1.0,95,0.30,,---,0.41,VWS V14.01,2013-03-08 11:41:00,
2013-03-08 03:46:00,46.2,44.8,29.85,NW,320,2.0,7.0,95,0.31,,---,0.42,VWS V14.01,2013-03-08 11:46:00,
2013-03-08 03:51:00,46.3,45.0,29.85,West,262,0.0,7.0,95,0.31,,---,0.42,VWS V14.01,2013-03-08 11:51:00,
2013-03-08 03:56:00,46.3,45.0,29.85,NNW,331,1.0,7.0,95,0.32,,---,0.43,VWS V14.01,2013-03-08 11:56:00,
2013-03-08 04:01:00,46.2,44.8,29.86,West,281,0.0,2.0,95,0.10,,---,0.45,VWS V14.01,2013-03-08 12:01:00,
2013-03-08 04:06:00,46.1,44.8,29.86,WNW,288,6.0,6.0,95,0.12,,---,0.47,VWS V14.01,2013-03-08 12:06:00,
2013-03-08 04:11:00,45.8,44.5,29.85,NNW,342,3.0,7.0,95,0.13,,---,0.48,VWS V14.01,2013-03-08 12:11:00,
2013-03-08 04:16:00,45.5,44.2,29.84,NNW,346,4.0,7.0,95,0.14,,---,0.49,VWS V14.01,2013-03-08 12:16:00,
2013-03-08 04:21:00,45.3,44.0,29.83,NNW,338,7.0,9.0,95,0.14,,---,0.49,VWS V14.01,2013-03-08 12:21:00,
2013-03-08 04:26:00,45.1,43.5,29.82,NNW,335,4.0,10.0,94,0.14,,---,0.49,VWS V14.01,2013-03-08 12:26:00,
2013-03-08 04:31:00,45.0,43.4,29.82,NW,324,1.0,5.0,94,0.09,,---,0.50,VWS V14.01,2013-03-08 12:31:00,
2013-03-08 04:36:00,44.9,43.3,29.84,West,281,0.0,5.0,94,0.09,,---,0.50,VWS V14.01,2013-03-08 12:36:00,
2013-03-08 04:41:00,44.9,43.3,29.84,NNW,329,1.0,5.0,94,0.09,,---,0.50,VWS V14.01,2013-03-08 12:41:00,
2013-03-08 04:46:00,44.9,43.3,29.85,West,263,0.0,5.0,94,0.09,,---,0.50,VWS V14.01,2013-03-08 12:46:00,
2013-03-08 04:51:00,44.9,43.3,29.85,NW,311,0.0,5.0,94,0.09,,---,0.50,VWS V14.01,2013-03-08 12:51:00,
2013-03-08 04:56:00,44.9,43.6,29.85,NW,311,0.0,5.0,95,0.09,,---,0.50,VWS V14.01,2013-03-08 12:56:00,
2013-03-08 05:01:00,44.9,43.6,29.84,NW,324,0.0,0.0,95,0.06,,---,0.50,VWS V14.01,2013-03-08 13:01:00,
2013-03-08 05:06:00,44.8,43.5,29.85,NNW,329,0.0,3.0,95,0.06,,---,0.50,VWS V14.01,2013-03-08 13:06:00,
2013-03-08 05:11:00,44.9,43.6,29.85,NNW,338,0.0,3.0,95,0.06,,---,0.50,VWS V14.01,2013-03-08 13:11:00,
2013-03-08 05:16:00,44.9,43.6,29.85,North,360,0.0,3.0,95,0.06,,---,0.50,VWS V14.01,2013-03-08 13:16:00,
2013-03-08 05:21:00,44.9,43.6,29.85,North,360,0.0,3.0,95,0.06,,---,0.50,VWS V14.01,2013-03-08 13:21:00,
2013-03-08 05:26:00,45.0,43.7,29.84,North,360,0.0,3.0,95,0.06,,---,0.50,VWS V14.01,2013-03-08 13:26:00,
2013-03-08 05:31:00,44.9,43.6,29.85,South,170,2.0,2.0,95,0.01,,---,0.50,VWS V14.01,2013-03-08 13:31:00,
2013-03-08 05:36:00,45.0,43.7,29.86,SSE,168,0.0,2.0,95,0.01,,---,0.50,VWS V14.01,2013-03-08 13:36:00,
2013-03-08 05:41:00,45.1,43.8,29.86,SSE,168,0.0,2.0,95,0.01,,---,0.50,VWS V14.01,2013-03-08 13:41:00,
2013-03-08 05:46:00,45.1,44.0,29.87,SSE,167,0.0,2.0,96,0.01,,---,0.50,VWS V14.01,2013-03-08 13:46:00,
2013-03-08 05:51:00,45.2,44.1,29.87,SSE,168,0.0,2.0,96,0.01,,---,0.50,VWS V14.01,2013-03-08 13:51:00,
2013-03-08 05:56:00,45.3,44.2,29.87,SSE,168,0.0,2.0,96,0.01,,---,0.50,VWS V14.01,2013-03-08 13:56:00,
2013-03-08 06:01:00,45.5,44.4,29.87,SSE,168,0.0,0.0,96,0.00,,---,0.50,VWS V14.01,2013-03-08 14:01:00,
2013-03-08 06:06:00,45.5,45.5,29.87,SSE,168,0.0,0.0,100,0.00,,---,0.50,VWS V14.01,2013-03-08 14:06:00,
2013-03-08 06:11:00,45.6,44.5,29.87,SSE,168,0.0,0.0,96,0.00,,---,0.50,VWS V14.01,2013-03-08 14:11:00,
2013-03-08 06:16:00,45.7,44.6,29.88,SSE,168,0.0,0.0,96,0.00,,---,0.50,VWS V14.01,2013-03-08 14:16:00,
2013-03-08 06:21:00,45.8,44.7,29.88,SSE,167,0.0,0.0,96,0.00,,---,0.50,VWS V14.01,2013-03-08 14:21:00,
2013-03-08 06:26:00,45.8,44.7,29.88,SSE,168,0.0,0.0,96,0.00,,---,0.50,VWS V14.01,2013-03-08 14:26:00,
2013-03-08 06:31:00,45.8,44.7,29.89,SSE,168,0.0,0.0,96,0.00,,---,0.50,VWS V14.01,2013-03-08 14:31:00,
2013-03-08 06:36:00,45.8,44.7,29.89,SSE,168,0.0,1.0,96,0.00,,---,0.50,VWS V14.01,2013-03-08 14:36:00,
2013-03-08 06:41:00,45.8,44.7,29.89,SSE,168,0.0,1.0,96,0.00,,---,0.50,VWS V14.01,2013-03-08 14:41:00,
2013-03-08 06:46:00,45.7,44.6,29.90,SSE,168,0.0,1.0,96,0.00,,---,0.50,VWS V14.01,2013-03-08 14:46:00,
2013-03-08 06:51:00,45.7,44.6,29.90,SSE,168,0.0,1.0,96,0.00,,---,0.50,VWS V14.01,2013-03-08 14:51:00,
2013-03-08 06:56:00,45.7,44.6,29.91,SSE,168,0.0,1.0,96,0.00,,---,0.50,VWS V14.01,2013-03-08 14:56:00,
2013-03-08 07:01:00,45.8,44.7,29.92,SSE,168,0.0,1.0,96,0.00,,---,0.50,VWS V14.01,2013-03-08 15:01:00,
2013-03-08 07:06:00,45.9,44.8,29.92,SSE,168,0.0,1.0,96,0.00,,---,0.50,VWS V14.01,2013-03-08 15:06:00,
2013-03-08 07:11:00,45.9,44.8,29.92,SSE,168,0.0,1.0,96,0.00,,---,0.50,VWS V14.01,2013-03-08 15:11:00,
2013-03-08 07:16:00,46.5,45.7,29.92,SSE,167,0.0,1.0,97,0.00,,---,0.50,VWS V14.01,2013-03-08 15:16:00,
2013-03-08 07:21:00,47.2,46.4,29.92,SSE,165,2.0,4.0,97,0.00,,---,0.50,VWS V14.01,2013-03-08 15:21:00,
2013-03-08 07:26:00,47.2,46.4,29.92,SE,130,0.0,4.0,97,0.00,,---,0.50,VWS V14.01,2013-03-08 15:26:00,
2013-03-08 07:31:00,47.3,46.2,29.93,SE,130,0.0,0.0,96,0.00,,---,0.50,VWS V14.01,2013-03-08 15:31:00,
2013-03-08 07:36:00,47.1,46.0,29.92,ESE,118,0.0,3.0,96,0.00,,---,0.50,VWS V14.01,2013-03-08 15:36:00,
2013-03-08 07:41:00,47.1,46.0,29.92,SE,128,0.0,3.0,96,0.00,,---,0.50,VWS V14.01,2013-03-08 15:41:00,
2013-03-08 07:46:00,47.3,46.2,29.92,ESE,117,1.0,4.0,96,0.00,,---,0.50,VWS V14.01,2013-03-08 15:46:00,
2013-03-08 07:51:00,47.1,46.0,29.92,SE,142,0.0,6.0,96,0.00,,---,0.50,VWS V14.01,2013-03-08 15:51:00,
2013-03-08 07:56:00,47.4,46.3,29.92,SE,136,0.0,6.0,96,0.00,,---,0.50,VWS V14.01,2013-03-08 15:56:00,
2013-03-08 08:01:00,47.7,46.6,29.92,SE,136,1.0,5.0,96,0.00,,---,0.50,VWS V14.01,2013-03-08 16:01:00,
2013-03-08 08:06:00,47.8,46.4,29.92,East,94,0.0,5.0,95,0.00,,---,0.50,VWS V14.01,2013-03-08 16:06:00,
2013-03-08 08:11:00,48.4,47.0,29.92,ESE,120,0.0,5.0,95,0.00,,---,0.50,VWS V14.01,2013-03-08 16:11:00,
2013-03-08 08:16:00,48.4,46.8,29.92,ESE,117,1.0,6.0,94,0.00,,---,0.50,VWS V14.01,2013-03-08 16:16:00,
2013-03-08 08:21:00,48.7,47.0,29.92,ESE,102,0.0,6.0,94,0.00,,---,0.50,VWS V14.01,2013-03-08 16:21:00,
2013-03-08 08:26:00,49.3,47.4,29.92,ESE,118,0.0,6.0,93,0.00,,---,0.50,VWS V14.01,2013-03-08 16:26:00,
2013-03-08 08:31:00,49.7,47.5,29.92,ESE,117,5.0,6.0,92,0.00,,---,0.50,VWS V14.01,2013-03-08 16:31:00,
2013-03-08 08:36:00,50.0,47.2,29.92,SSE,157,0.0,6.0,90,0.00,,---,0.50,VWS V14.01,2013-03-08 16:36:00,
2013-03-08 08:41:00,50.4,47.6,29.92,SSW,211,0.0,6.0,90,0.00,,---,0.50,VWS V14.01,2013-03-08 16:41:00,
2013-03-08 08:46:00,50.1,46.7,29.93,WNW,301,1.0,6.0,88,0.00,,---,0.50,VWS V14.01,2013-03-08 16:46:00,
2013-03-08 08:51:00,50.2,46.2,29.93,NW,323,0.0,6.0,86,0.00,,---,0.50,VWS V14.01,2013-03-08 16:51:00,
2013-03-08 08:56:00,50.4,46.1,29.92,ESE,115,2.0,6.0,85,0.00,,---,0.50,VWS V14.01,2013-03-08 16:56:00,
2013-03-08 09:01:00,50.8,45.8,29.92,WNW,283,0.0,2.0,83,0.00,,---,0.50,VWS V14.01,2013-03-08 17:01:00,
2013-03-08 09:06:00,50.7,45.7,29.93,WSW,252,0.0,3.0,83,0.00,,---,0.50,VWS V14.01,2013-03-08 17:06:00,
2013-03-08 09:11:00,50.8,45.2,29.93,WNW,302,0.0,3.0,81,0.00,,---,0.50,VWS V14.01,2013-03-08 17:11:00,
2013-03-08 09:16:00,51.6,46.3,29.93,NW,315,0.0,3.0,82,0.00,,---,0.50,VWS V14.01,2013-03-08 17:16:00,
2013-03-08 09:21:00,52.4,45.1,29.93,SSE,165,4.0,7.0,76,0.00,,---,0.50,VWS V14.01,2013-03-08 17:21:00,
2013-03-08 09:26:00,52.6,45.6,29.93,WNW,298,0.0,7.0,77,0.00,,---,0.50,VWS V14.01,2013-03-08 17:26:00,
2013-03-08 09:31:00,52.8,44.0,29.93,South,184,0.0,4.0,72,0.00,,---,0.50,VWS V14.01,2013-03-08 17:31:00,
2013-03-08 09:36:00,52.8,44.8,29.93,West,264,0.0,4.0,74,0.00,,---,0.50,VWS V14.01,2013-03-08 17:36:00,
2013-03-08 09:41:00,52.7,43.9,29.94,SSW,208,0.0,4.0,72,0.00,,---,0.50,VWS V14.01,2013-03-08 17:41:00,
2013-03-08 09:46:00,53.1,45.0,29.93,North,351,0.0,4.0,74,0.00,,---,0.50,VWS V14.01,2013-03-08 17:46:00,
2013-03-08 09:51:00,54.0,44.1,29.93,SW,233,0.0,4.0,69,0.00,,---,0.50,VWS V14.01,2013-03-08 17:51:00,
2013-03-08 09:56:00,54.1,44.2,29.94,SW,224,0.0,4.0,69,0.00,,---,0.50,VWS V14.01,2013-03-08 17:56:00,
2013-03-08 10:01:00,53.7,43.0,29.94,NW,320,1.0,3.0,67,0.00,,---,0.50,VWS V14.01,2013-03-08 18:01:00,
2013-03-08 10:06:00,53.0,42.7,29.94,North,5,0.0,3.0,68,0.00,,---,0.50,VWS V14.01,2013-03-08 18:06:00,
2013-03-08 10:11:00,53.0,42.7,29.94,ENE,58,0.0,3.0,68,0.00,,---,0.50,VWS V14.01,2013-03-08 18:11:00,
2013-03-08 10:16:00,53.2,42.9,29.94,NNW,344,0.0,3.0,68,0.00,,---,0.50,VWS V14.01,2013-03-08 18:16:00,
2013-03-08 10:21:00,53.1,42.5,29.94,West,262,0.0,3.0,67,0.00,,---,0.50,VWS V14.01,2013-03-08 18:21:00,
2013-03-08 10:26:00,52.7,42.8,29.94,NW,317,1.0,3.0,69,0.00,,---,0.50,VWS V14.01,2013-03-08 18:26:00,
2013-03-08 10:31:00,52.6,43.8,29.94,WNW,288,1.0,1.0,72,0.00,,---,0.50,VWS V14.01,2013-03-08 18:31:00,
2013-03-08 10:36:00,52.4,44.0,29.94,SSE,151,1.0,2.0,73,0.00,,---,0.50,VWS V14.01,2013-03-08 18:36:00,
2013-03-08 10:41:00,52.1,44.4,29.94,SSE,167,0.0,2.0,75,0.00,,---,0.50,VWS V14.01,2013-03-08 18:41:00,
2013-03-08 10:46:00,52.1,45.8,29.94,ESE,117,0.0,2.0,79,0.00,,---,0.50,VWS V14.01,2013-03-08 18:46:00,
2013-03-08 10:51:00,52.1,44.1,29.94,South,184,0.0,2.0,74,0.00,,---,0.50,VWS V14.01,2013-03-08 18:51:00,
2013-03-08 10:56:00,52.0,43.3,29.93,South,184,0.0,2.0,72,0.00,,---,0.50,VWS V14.01,2013-03-08 18:56:00,
2013-03-08 11:01:00,52.3,44.3,29.93,SE,138,0.0,1.0,74,0.00,,---,0.50,VWS V14.01,2013-03-08 19:01:00,
2013-03-08 11:06:00,52.6,43.5,29.94,SE,138,0.0,2.0,71,0.00,,---,0.50,VWS V14.01,2013-03-08 19:06:00,
2013-03-08 11:11:00,52.7,43.2,29.94,SE,138,0.0,2.0,70,0.00,,---,0.50,VWS V14.01,2013-03-08 19:11:00,
2013-03-08 11:16:00,53.2,42.5,29.94,SSW,194,0.0,7.0,67,0.00,,---,0.50,VWS V14.01,2013-03-08 19:16:00,
2013-03-08 11:21:00,54.3,42.4,29.94,WNW,290,0.0,7.0,64,0.00,,---,0.50,VWS V14.01,2013-03-08 19:21:00,
2013-03-08 11:26:00,55.3,42.9,29.94,SE,136,4.0,7.0,63,0.00,,---,0.50,VWS V14.01,2013-03-08 19:26:00,
2013-03-08 11:31:00,55.4,43.8,29.94,SE,146,2.0,6.0,65,0.00,,---,0.50,VWS V14.01,2013-03-08 19:31:00,
2013-03-08 11:36:00,54.6,43.1,29.94,SE,140,0.0,8.0,65,0.00,,---,0.50,VWS V14.01,2013-03-08 19:36:00,
2013-03-08 11:41:00,53.5,43.2,29.94,WSW,250,0.0,8.0,68,0.00,,---,0.50,VWS V14.01,2013-03-08 19:41:00,
2013-03-08 11:46:00,53.3,44.2,29.94,ESE,113,0.0,8.0,71,0.00,,---,0.50,VWS V14.01,2013-03-08 19:46:00,
2013-03-08 11:51:00,53.5,44.3,29.95,ESE,113,0.0,8.0,71,0.00,,---,0.50,VWS V14.01,2013-03-08 19:51:00,
2013-03-08 11:56:00,53.7,44.2,29.95,ESE,113,0.0,8.0,70,0.00,,---,0.50,VWS V14.01,2013-03-08 19:56:00,
2013-03-08 12:01:00,53.5,43.6,29.95,SW,223,5.0,7.0,69,0.00,,---,0.50,VWS V14.01,2013-03-08 20:01:00,
2013-03-08 12:06:00,52.7,43.2,29.95,SSE,157,0.0,8.0,70,0.00,,---,0.50,VWS V14.01,2013-03-08 20:06:00,
2013-03-08 12:11:00,52.3,43.5,29.95,SSE,167,4.0,8.0,72,0.00,,---,0.50,VWS V14.01,2013-03-08 20:11:00,
2013-03-08 12:16:00,52.4,44.0,29.95,South,178,5.0,8.0,73,0.00,,---,0.50,VWS V14.01,2013-03-08 20:16:00,
2013-03-08 12:21:00,53.3,44.2,29.95,SSE,163,5.0,10.0,71,0.00,,---,0.50,VWS V14.01,2013-03-08 20:21:00,
2013-03-08 12:26:00,53.9,44.0,29.95,SSW,199,0.0,10.0,69,0.00,,---,0.50,VWS V14.01,2013-03-08 20:26:00,
2013-03-08 12:31:00,54.1,44.2,29.95,SSE,153,0.0,5.0,69,0.00,,---,0.50,VWS V14.01,2013-03-08 20:31:00,
2013-03-08 12:36:00,52.9,43.0,29.95,West,268,2.0,11.0,69,0.00,,---,0.50,VWS V14.01,2013-03-08 20:36:00,
2013-03-08 12:41:00,52.9,43.0,29.94,NE,47,0.0,11.0,69,0.00,,---,0.50,VWS V14.01,2013-03-08 20:41:00,
2013-03-08 12:46:00,52.6,42.7,29.94,NW,313,0.0,13.0,69,0.00,,---,0.50,VWS V14.01,2013-03-08 20:46:00,
2013-03-08 12:51:00,52.1,43.4,29.94,WSW,258,3.0,13.0,72,0.00,,---,0.50,VWS V14.01,2013-03-08 20:51:00,
2013-03-08 12:56:00,52.4,43.7,29.94,South,188,0.0,13.0,72,0.00,,---,0.50,VWS V14.01,2013-03-08 20:56:00,
2013-03-08 13:01:00,53.3,44.2,29.94,SSW,192,0.0,7.0,71,0.00,,---,0.50,VWS V14.01,2013-03-08 21:01:00,
2013-03-08 13:06:00,54.3,44.0,29.94,SSW,196,0.0,9.0,68,0.00,,---,0.50,VWS V14.01,2013-03-08 21:06:00,
2013-03-08 13:11:00,54.1,43.4,29.94,ESE,113,2.0,9.0,67,0.00,,---,0.50,VWS V14.01,2013-03-08 21:11:00,
2013-03-08 13:16:00,53.4,43.1,29.94,South,188,3.0,11.0,68,0.00,,---,0.50,VWS V14.01,2013-03-08 21:16:00,
2013-03-08 13:21:00,53.5,43.6,29.93,East,83,1.0,11.0,69,0.00,,---,0.50,VWS V14.01,2013-03-08 21:21:00,
2013-03-08 13:26:00,53.9,44.0,29.94,SSE,152,4.0,11.0,69,0.00,,---,0.50,VWS V14.01,2013-03-08 21:26:00,
2013-03-08 13:31:00,53.6,42.5,29.93,ESE,123,0.0,4.0,66,0.00,,---,0.50,VWS V14.01,2013-03-08 21:31:00,
2013-03-08 13:36:00,53.1,44.7,29.93,North,9,0.0,5.0,73,0.02,,---,0.52,VWS V14.01,2013-03-08 21:36:00,
2013-03-08 13:41:00,52.4,44.7,29.94,ENE,78,0.0,5.0,75,0.04,,---,0.54,VWS V14.01,2013-03-08 21:41:00,
2013-03-08 13:46:00,50.9,45.0,29.95,WNW,290,4.0,10.0,80,0.08,,---,0.58,VWS V14.01,2013-03-08 21:46:00,
2013-03-08 13:51:00,49.6,44.7,29.94,North,360,0.0,10.0,83,0.10,,---,0.60,VWS V14.01,2013-03-08 21:51:00,
2013-03-08 13:56:00,49.3,45.0,29.94,North,360,0.0,10.0,85,0.10,,---,0.60,VWS V14.01,2013-03-08 21:56:00,
2013-03-08 14:01:00,49.3,45.6,29.94,North,360,0.0,0.0,87,0.10,,---,0.60,VWS V14.01,2013-03-08 22:01:00,
2013-03-08 14:06:00,49.4,46.0,29.94,North,360,0.0,1.0,88,0.10,,---,0.60,VWS V14.01,2013-03-08 22:06:00,
2013-03-08 14:11:00,49.3,45.9,29.94,North,360,0.0,1.0,88,0.10,,---,0.60,VWS V14.01,2013-03-08 22:11:00,
2013-03-08 14:16:00,49.4,46.0,29.94,ENE,77,0.0,1.0,88,0.10,,---,0.60,VWS V14.01,2013-03-08 22:16:00,
2013-03-08 14:21:00,49.5,46.4,29.94,ENE,78,0.0,1.0,89,0.10,,---,0.60,VWS V14.01,2013-03-08 22:21:00,
2013-03-08 14:26:00,49.7,46.9,29.94,ENE,78,0.0,1.0,90,0.10,,---,0.60,VWS V14.01,2013-03-08 22:26:00,
2013-03-08 14:31:00,49.8,46.7,29.95,ENE,78,0.0,0.0,89,0.10,,---,0.60,VWS V14.01,2013-03-08 22:31:00,
2013-03-08 14:36:00,50.4,48.2,29.94,ENE,78,0.0,1.0,92,0.10,,---,0.60,VWS V14.01,2013-03-08 22:36:00,
2013-03-08 14:41:00,50.7,47.9,29.94,NE,53,0.0,5.0,90,0.10,,---,0.60,VWS V14.01,2013-03-08 22:41:00,
2013-03-08 14:46:00,51.0,48.2,29.94,East,89,0.0,5.0,90,0.10,,---,0.60,VWS V14.01,2013-03-08 22:46:00,
2013-03-08 14:51:00,51.0,47.0,29.94,SE,134,4.0,5.0,86,0.10,,---,0.60,VWS V14.01,2013-03-08 22:51:00,
2013-03-08 14:56:00,51.0,47.3,29.94,East,89,0.0,5.0,87,0.10,,---,0.60,VWS V14.01,2013-03-08 22:56:00,
2013-03-08 15:01:00,51.4,47.4,29.93,WNW,286,3.0,5.0,86,0.00,,---,0.60,VWS V14.01,2013-03-08 23:01:00,
2013-03-08 15:06:00,51.7,46.4,29.94,WNW,295,0.0,5.0,82,0.00,,---,0.60,VWS V14.01,2013-03-08 23:06:00,
2013-03-08 15:11:00,52.1,45.5,29.94,WNW,282,0.0,5.0,78,0.00,,---,0.60,VWS V14.01,2013-03-08 23:11:00,
2013-03-08 15:16:00,52.3,44.6,29.93,SW,232,2.0,5.0,75,0.00,,---,0.60,VWS V14.01,2013-03-08 23:16:00,
2013-03-08 15:21:00,52.7,45.0,29.93,South,175,1.0,5.0,75,0.00,,---,0.60,VWS V14.01,2013-03-08 23:21:00,
2013-03-08 15:26:00,52.8,43.7,29.94,NNW,333,1.0,7.0,71,0.00,,---,0.60,VWS V14.01,2013-03-08 23:26:00,
2013-03-08 15:31:00,52.9,44.1,29.94,WNW,292,0.0,6.0,72,0.00,,---,0.60,VWS V14.01,2013-03-08 23:31:00,
2013-03-08 15:36:00,52.7,43.9,29.94,North,355,0.0,6.0,72,0.00,,---,0.60,VWS V14.01,2013-03-08 23:36:00,
2013-03-08 15:41:00,52.4,43.3,29.94,WSW,257,0.0,8.0,71,0.00,,---,0.60,VWS V14.01,2013-03-08 23:41:00,
2013-03-08 15:46:00,52.2,43.8,29.94,West,263,0.0,8.0,73,0.00,,---,0.60,VWS V14.01,2013-03-08 23:46:00,
2013-03-08 15:51:00,52.0,43.3,29.94,NW,319,0.0,8.0,72,0.00,,---,0.60,VWS V14.01,2013-03-08 23:51:00,
2013-03-08 15:56:00,52.1,43.4,29.94,NNW,344,0.0,8.0,72,0.00,,---,0.60,VWS V14.01,2013-03-08 23:56:00,
2013-03-08 16:01:00,52.2,43.5,29.94,WNW,291,0.0,2.0,72,0.00,,---,0.60,VWS V14.01,2013-03-09 00:01:00,
2013-03-08 16:06:00,52.3,43.5,29.94,NNW,328,0.0,2.0,72,0.00,,---,0.60,VWS V14.01,2013-03-09 00:06:00,
2013-03-08 16:11:00,52.3,43.9,29.94,North,5,0.0,2.0,73,0.00,,---,0.60,VWS V14.01,2013-03-09 00:11:00,
2013-03-08 16:16:00,52.8,44.0,29.94,SE,131,1.0,7.0,72,0.00,,---,0.60,VWS V14.01,2013-03-09 00:16:00,
2013-03-08 16:21:00,53.0,44.2,29.94,NNW,331,2.0,7.0,72,0.00,,---,0.60,VWS V14.01,2013-03-09 00:21:00,
2013-03-08 16:26:00,52.9,44.1,29.94,WSW,241,2.0,7.0,72,0.00,,---,0.60,VWS V14.01,2013-03-09 00:26:00,
2013-03-08 16:31:00,52.7,43.6,29.94,West,270,3.0,7.0,71,0.00,,---,0.60,VWS V14.01,2013-03-09 00:31:00,
2013-03-08 16:36:00,52.5,43.4,29.95,West,261,1.0,7.0,71,0.00,,---,0.60,VWS V14.01,2013-03-09 00:36:00,
2013-03-08 16:41:00,52.4,43.7,29.95,North,5,2.0,7.0,72,0.00,,---,0.60,VWS V14.01,2013-03-09 00:41:00,
2013-03-08 16:46:00,52.3,43.5,29.95,WNW,292,0.0,7.0,72,0.00,,---,0.60,VWS V14.01,2013-03-09 00:46:00,
2013-03-08 16:51:00,52.1,43.0,29.95,East,80,0.0,7.0,71,0.00,,---,0.60,VWS V14.01,2013-03-09 00:51:00,
2013-03-08 16:56:00,52.1,43.0,29.95,SSW,210,0.0,7.0,71,0.00,,---,0.60,VWS V14.01,2013-03-09 00:56:00,
2013-03-08 17:01:00,51.8,42.7,29.96,NW,304,0.0,4.0,71,0.00,,---,0.60,VWS V14.01,2013-03-09 01:01:00,
2013-03-08 17:06:00,51.7,43.0,29.96,West,264,0.0,4.0,72,0.00,,---,0.60,VWS V14.01,2013-03-09 01:06:00,
2013-03-08 17:11:00,51.7,43.0,29.96,WNW,296,1.0,4.0,72,0.00,,---,0.60,VWS V14.01,2013-03-09 01:11:00,
2013-03-08 17:16:00,51.5,43.1,29.96,NNW,335,0.0,4.0,73,0.00,,---,0.60,VWS V14.01,2013-03-09 01:16:00,
2013-03-08 17:21:00,51.4,43.0,29.97,South,183,1.0,4.0,73,0.00,,---,0.60,VWS V14.01,2013-03-09 01:21:00,
2013-03-08 17:26:00,51.4,43.4,29.97,WNW,287,0.0,4.0,74,0.00,,---,0.60,VWS V14.01,2013-03-09 01:26:00,
2013-03-08 17:31:00,51.3,43.3,29.97,WNW,290,0.0,6.0,74,0.00,,---,0.60,VWS V14.01,2013-03-09 01:31:00,
2013-03-08 17:36:00,51.2,43.2,29.97,WNW,293,0.0,6.0,74,0.00,,---,0.60,VWS V14.01,2013-03-09 01:36:00,
2013-03-08 17:41:00,51.2,43.2,29.98,West,262,0.0,6.0,74,0.00,,---,0.60,VWS V14.01,2013-03-09 01:41:00,
2013-03-08 17:46:00,51.2,43.2,29.98,NE,53,0.0,6.0,74,0.00,,---,0.60,VWS V14.01,2013-03-09 01:46:00,
2013-03-08 17:51:00,51.2,43.2,29.99,West,281,1.0,6.0,74,0.00,,---,0.60,VWS V14.01,2013-03-09 01:51:00,
2013-03-08 17:56:00,51.2,43.2,29.99,WNW,296,0.0,6.0,74,0.00,,---,0.60,VWS V14.01,2013-03-09 01:56:00,
2013-03-08 18:01:00,51.1,43.5,29.99,NNW,328,0.0,1.0,75,0.00,,---,0.60,VWS V14.01,2013-03-09 02:01:00,
2013-03-08 18:06:00,51.1,43.8,29.99,NNW,328,0.0,1.0,76,0.00,,---,0.60,VWS V14.01,2013-03-09 02:06:00,
2013-03-08 18:11:00,51.0,43.7,29.99,SSW,196,0.0,1.0,76,0.00,,---,0.60,VWS V14.01,2013-03-09 02:11:00,
2013-03-08 18:16:00,50.9,44.0,30.00,East,96,0.0,1.0,77,0.00,,---,0.60,VWS V14.01,2013-03-09 02:16:00,
2013-03-08 18:21:00,50.9,44.0,30.00,East,96,0.0,1.0,77,0.00,,---,0.60,VWS V14.01,2013-03-09 02:21:00,
2013-03-08 18:26:00,50.9,44.0,30.00,NNW,344,0.0,1.0,77,0.00,,---,0.60,VWS V14.01,2013-03-09 02:26:00,
2013-03-08 18:31:00,50.9,44.3,30.00,NNW,344,0.0,0.0,78,0.00,,---,0.60,VWS V14.01,2013-03-09 02:31:00,
2013-03-08 18:36:00,50.8,44.2,30.01,NNW,334,0.0,1.0,78,0.00,,---,0.60,VWS V14.01,2013-03-09 02:36:00,
2013-03-08 18:41:00,50.9,44.3,30.01,NE,49,0.0,1.0,78,0.00,,---,0.60,VWS V14.01,2013-03-09 02:41:00,
2013-03-08 18:46:00,50.9,44.3,30.01,NE,49,0.0,2.0,78,0.00,,---,0.60,VWS V14.01,2013-03-09 02:46:00,
2013-03-08 18:51:00,50.9,44.3,30.02,SW,228,0.0,2.0,78,0.00,,---,0.60,VWS V14.01,2013-03-09 02:51:00,
2013-03-08 18:56:00,50.9,44.3,30.02,East,93,0.0,2.0,78,0.00,,---,0.60,VWS V14.01,2013-03-09 02:56:00,
2013-03-08 19:01:00,51.0,44.0,30.02,NW,304,0.0,1.0,77,0.00,,---,0.60,VWS V14.01,2013-03-09 03:01:00,
2013-03-08 19:06:00,51.0,44.4,30.02,NW,304,0.0,2.0,78,0.00,,---,0.60,VWS V14.01,2013-03-09 03:06:00,
2013-03-08 19:11:00,51.0,44.4,30.03,NNW,329,0.0,5.0,78,0.00,,---,0.60,VWS V14.01,2013-03-09 03:11:00,
2013-03-08 19:16:00,51.0,45.1,30.03,NNW,333,0.0,5.0,80,0.00,,---,0.60,VWS V14.01,2013-03-09 03:16:00,
2013-03-08 19:21:00,50.8,45.5,30.03,NNW,333,0.0,5.0,82,0.02,,---,0.62,VWS V14.01,2013-03-09 03:21:00,
2013-03-08 19:26:00,50.4,46.1,30.03,NNW,332,0.0,5.0,85,0.07,,---,0.67,VWS V14.01,2013-03-09 03:26:00,
2013-03-08 19:31:00,49.9,46.2,30.03,NNW,332,0.0,0.0,87,0.07,,---,0.67,VWS V14.01,2013-03-09 03:31:00,
2013-03-08 19:36:00,49.6,46.2,30.03,NNW,332,0.0,0.0,88,0.07,,---,0.67,VWS V14.01,2013-03-09 03:36:00,
2013-03-08 19:41:00,49.4,46.3,30.04,NNW,332,0.0,0.0,89,0.07,,---,0.67,VWS V14.01,2013-03-09 03:41:00,
2013-03-08 19:46:00,49.2,46.4,30.04,NNW,332,0.0,0.0,90,0.07,,---,0.67,VWS V14.01,2013-03-09 03:46:00,
2013-03-08 19:51:00,49.1,46.6,30.04,NNW,332,0.0,0.0,91,0.07,,---,0.67,VWS V14.01,2013-03-09 03:51:00,
2013-03-08 19:56:00,49.2,46.7,30.04,NNW,332,0.0,0.0,91,0.07,,---,0.67,VWS V14.01,2013-03-09 03:56:00,
2013-03-08 20:01:00,49.2,47.0,30.04,NNW,332,0.0,0.0,92,0.07,,---,0.67,VWS V14.01,2013-03-09 04:01:00,
2013-03-08 20:06:00,49.1,46.9,30.05,NNW,332,0.0,0.0,92,0.07,,---,0.67,VWS V14.01,2013-03-09 04:06:00,
2013-03-08 20:11:00,49.1,46.9,30.05,NNW,332,0.0,0.0,92,0.07,,---,0.67,VWS V14.01,2013-03-09 04:11:00,
2013-03-08 20:16:00,49.1,46.9,30.05,NNW,332,0.0,0.0,92,0.07,,---,0.67,VWS V14.01,2013-03-09 04:16:00,
2013-03-08 20:21:00,49.1,47.2,30.05,NNW,332,0.0,0.0,93,0.07,,---,0.67,VWS V14.01,2013-03-09 04:21:00,
2013-03-08 20:25:00,49.2,47.3,30.05,NNW,332,0.0,0.0,93,0.07,,---,0.67,VWS V14.01,2013-03-09 04:25:00,
2013-03-08 20:30:00,49.1,47.2,30.06,NNW,332,0.0,0.0,93,0.00,,---,0.67,VWS V14.01,2013-03-09 04:30:00,
2013-03-08 20:35:00,49.1,47.2,30.06,NNW,332,0.0,0.0,93,0.00,,---,0.67,VWS V14.01,2013-03-09 04:35:00,
2013-03-08 20:40:00,49.2,47.5,30.06,NNW,332,0.0,0.0,94,0.00,,---,0.67,VWS V14.01,2013-03-09 04:40:00,
2013-03-08 20:45:00,49.2,47.5,30.06,NNW,332,0.0,0.0,94,0.00,,---,0.67,VWS V14.01,2013-03-09 04:45:00,
2013-03-08 20:50:00,49.1,47.5,30.06,NNW,332,0.0,0.0,94,0.00,,---,0.67,VWS V14.01,2013-03-09 04:50:00,
2013-03-08 20:55:00,49.1,47.5,30.06,NNW,332,0.0,0.0,94,0.00,,---,0.67,VWS V14.01,2013-03-09 04:55:00,
2013-03-08 21:00:00,49.2,47.5,30.06,NNW,332,0.0,0.0,94,0.00,,---,0.67,VWS V14.01,2013-03-09 05:00:00,
2013-03-08 21:05:00,49.2,47.5,30.06,NNW,332,0.0,1.0,94,0.00,,---,0.67,VWS V14.01,2013-03-09 05:05:00,
2013-03-08 21:10:00,49.2,47.5,30.06,NNW,332,0.0,1.0,94,0.00,,---,0.67,VWS V14.01,2013-03-09 05:10:00,
2013-03-08 21:15:00,49.2,47.5,30.06,NNW,332,0.0,1.0,94,0.00,,---,0.67,VWS V14.01,2013-03-09 05:15:00,
2013-03-08 21:20:00,49.1,47.5,30.06,NNW,332,0.0,1.0,94,0.00,,---,0.67,VWS V14.01,2013-03-09 05:20:00,
2013-03-08 21:25:00,49.1,47.5,30.06,NNW,332,0.0,1.0,94,0.00,,---,0.67,VWS V14.01,2013-03-09 05:25:00,
2013-03-08 21:30:00,49.2,47.5,30.07,NNW,332,0.0,1.0,94,0.00,,---,0.67,VWS V14.01,2013-03-09 05:30:00,
2013-03-08 21:35:00,49.3,47.7,30.07,NNW,332,0.0,1.0,94,0.00,,---,0.67,VWS V14.01,2013-03-09 05:35:00,
2013-03-08 21:40:00,49.4,47.8,30.07,NNW,332,0.0,1.0,94,0.00,,---,0.67,VWS V14.01,2013-03-09 05:40:00,
2013-03-08 21:45:00,49.5,47.8,30.07,NNW,332,0.0,1.0,94,0.00,,---,0.67,VWS V14.01,2013-03-09 05:45:00,
2013-03-08 21:50:00,49.5,47.8,30.07,NNW,332,0.0,1.0,94,0.00,,---,0.67,VWS V14.01,2013-03-09 05:50:00,
2013-03-08 21:55:00,49.4,47.8,30.07,NNW,332,0.0,1.0,94,0.00,,---,0.67,VWS V14.01,2013-03-09 05:55:00,
2013-03-08 22:00:00,49.4,47.8,30.07,NNW,332,0.0,0.0,94,0.00,,---,0.67,VWS V14.01,2013-03-09 06:00:00,
2013-03-08 22:05:00,49.4,47.8,30.07,West,272,1.0,1.0,94,0.00,,---,0.67,VWS V14.01,2013-03-09 06:05:00,
2013-03-08 22:10:00,49.5,47.8,30.08,South,177,0.0,5.0,94,0.00,,---,0.67,VWS V14.01,2013-03-09 06:10:00,
2013-03-08 22:15:00,49.5,47.6,30.08,North,355,0.0,5.0,93,0.00,,---,0.67,VWS V14.01,2013-03-09 06:15:00,
2013-03-08 22:20:00,49.5,47.8,30.08,North,355,0.0,5.0,94,0.00,,---,0.67,VWS V14.01,2013-03-09 06:20:00,
2013-03-08 22:25:00,49.5,47.8,30.08,North,355,0.0,5.0,94,0.00,,---,0.67,VWS V14.01,2013-03-09 06:25:00,
2013-03-08 22:30:00,49.4,47.5,30.08,North,355,0.0,0.0,93,0.00,,---,0.67,VWS V14.01,2013-03-09 06:30:00,
2013-03-08 22:35:00,49.3,47.4,30.07,North,355,0.0,0.0,93,0.00,,---,0.67,VWS V14.01,2013-03-09 06:35:00,
2013-03-08 22:40:00,49.2,47.3,30.07,North,355,0.0,0.0,93,0.00,,---,0.67,VWS V14.01,2013-03-09 06:40:00,
2013-03-08 22:45:00,49.1,47.2,30.07,North,355,0.0,0.0,93,0.00,,---,0.67,VWS V14.01,2013-03-09 06:45:00,
2013-03-08 22:50:00,48.9,47.0,30.07,North,355,0.0,0.0,93,0.00,,---,0.67,VWS V14.01,2013-03-09 06:50:00,
2013-03-08 22:55:00,48.8,46.9,30.07,North,355,0.0,0.0,93,0.00,,---,0.67,VWS V14.01,2013-03-09 06:55:00,
2013-03-08 23:00:00,48.8,46.9,30.07,North,355,0.0,0.0,93,0.00,,---,0.67,VWS V14.01,2013-03-09 07:00:00,
2013-03-08 23:05:00,48.6,46.7,30.07,North,355,0.0,0.0,93,0.00,,---,0.67,VWS V14.01,2013-03-09 07:05:00,
2013-03-08 23:10:00,48.5,46.6,30.07,North,355,0.0,0.0,93,0.00,,---,0.67,VWS V14.01,2013-03-09 07:10:00,
2013-03-08 23:15:00,48.3,46.7,30.07,North,355,0.0,0.0,94,0.00,,---,0.67,VWS V14.01,2013-03-09 07:15:00,
2013-03-08 23:20:00,48.3,46.7,30.07,North,355,0.0,0.0,94,0.00,,---,0.67,VWS V14.01,2013-03-09 07:20:00,
2013-03-08 23:25:00,48.3,46.7,30.07,North,355,0.0,0.0,94,0.00,,---,0.67,VWS V14.01,2013-03-09 07:25:00,
2013-03-08 23:30:00,48.4,46.8,30.07,North,355,0.0,0.0,94,0.00,,---,0.67,VWS V14.01,2013-03-09 07:30:00,
2013-03-08 23:35:00,48.5,46.9,30.08,North,355,0.0,0.0,94,0.00,,---,0.67,VWS V14.01,2013-03-09 07:35:00,
2013-03-08 23:40:00,48.5,46.9,30.07,North,355,0.0,0.0,94,0.00,,---,0.67,VWS V14.01,2013-03-09 07:40:00,
2013-03-08 23:45:00,48.4,46.8,30.07,North,355,0.0,0.0,94,0.00,,---,0.67,VWS V14.01,2013-03-09 07:45:00,
2013-03-08 23:50:00,48.3,46.7,30.07,North,355,0.0,0.0,94,0.00,,---,0.67,VWS V14.01,2013-03-09 07:50:00,
2013-03-08 23:55:00,48.3,46.7,30.07,North,355,0.0,0.0,94,0.00,,---,0.67,VWS V14.01,2013-03-09 07:55:00,